Albany, California
Current Conditions -  °F | °C
As of 11:53 AM on Friday 28 Nov 2014 (Local Time) from KOAK Reporting Station
Haze Haze  
Wind Chill: 56°   Ceiling: Unl
Heat Index: 56°   Visibility: 6mi
Dew Point: 51°   Wind: 5mph
Humidity: 84%   Direction: 200°SSW
Pressure: 29.99"   Gusts: NA
Location:  37.89°N, 122.29°W
Report Text: KOAK 281953Z 20004KT 6SM HZ FEW150 13/11 A2999 RMK AO2 SLP154 T01330106
Loading
Personal Weather Stations






























Interactive Weather Map New forecast layout! Learn more

10-Day Weather Forecast

Advertisements
Track Severe Weather on mobile